sensor_id;sensor_type;location;lat;lon;timestamp;pressure;altitude;pressure_sealevel;temperature;humidity
55685;BME280;41883;49.544;8.646;2023-05-28T00:02:04;100697.97;;;17.54;nan
55685;BME280;41883;49.544;8.646;2023-05-28T00:04:29;100686.59;;;17.45;nan
55685;BME280;41883;49.544;8.646;2023-05-28T00:06:54;100687.50;;;17.52;nan
55685;BME280;41883;49.544;8.646;2023-05-28T00:09:21;100680.81;;;17.41;nan
55685;BME280;41883;49.544;8.646;2023-05-28T00:11:46;100681.63;;;17.42;nan
55685;BME280;41883;49.544;8.646;2023-05-28T00:14:11;100684.44;;;17.34;nan
55685;BME280;41883;49.544;8.646;2023-05-28T00:16:37;100679.28;;;17.32;nan
55685;BME280;41883;49.544;8.646;2023-05-28T00:19:03;100679.53;;;17.37;nan
55685;BME280;41883;49.544;8.646;2023-05-28T00:21:29;100682.66;;;17.41;nan
55685;BME280;41883;49.544;8.646;2023-05-28T00:23:59;100687.69;;;17.29;nan
55685;BME280;41883;49.544;8.646;2023-05-28T00:26:25;100683.16;;;17.30;nan
55685;BME280;41883;49.544;8.646;2023-05-28T00:28:54;100674.16;;;17.31;nan
55685;BME280;41883;49.544;8.646;2023-05-28T00:31:21;100684.72;;;17.17;nan
55685;BME280;41883;49.544;8.646;2023-05-28T00:33:47;100675.31;;;17.22;nan
55685;BME280;41883;49.544;8.646;2023-05-28T00:36:12;100696.59;;;17.15;nan
55685;BME280;41883;49.544;8.646;2023-05-28T00:38:38;100684.59;;;17.04;nan
55685;BME280;41883;49.544;8.646;2023-05-28T00:41:03;100670.84;;;17.07;nan
55685;BME280;41883;49.544;8.646;2023-05-28T00:43:28;100676.38;;;17.06;nan
55685;BME280;41883;49.544;8.646;2023-05-28T00:45:56;100678.16;;;16.98;nan
55685;BME280;41883;49.544;8.646;2023-05-28T00:48:23;100678.63;;;17.02;nan
55685;BME280;41883;49.544;8.646;2023-05-28T00:50:49;100685.03;;;17.08;nan
55685;BME280;41883;49.544;8.646;2023-05-28T00:53:14;100676.25;;;16.92;nan
55685;BME280;41883;49.544;8.646;2023-05-28T00:55:40;100692.66;;;16.74;nan
55685;BME280;41883;49.544;8.646;2023-05-28T00:58:05;100692.59;;;16.53;nan
55685;BME280;41883;49.544;8.646;2023-05-28T01:00:36;100691.69;;;16.46;nan
55685;BME280;41883;49.544;8.646;2023-05-28T01:03:01;100690.16;;;16.37;nan
55685;BME280;41883;49.544;8.646;2023-05-28T01:05:27;100683.72;;;16.31;nan
55685;BME280;41883;49.544;8.646;2023-05-28T01:07:57;100693.81;;;16.21;nan
55685;BME280;41883;49.544;8.646;2023-05-28T01:10:22;100697.16;;;16.08;nan
55685;BME280;41883;49.544;8.646;2023-05-28T01:12:49;100690.78;;;15.94;nan
55685;BME280;41883;49.544;8.646;2023-05-28T01:15:14;100686.09;;;15.81;nan
55685;BME280;41883;49.544;8.646;2023-05-28T01:17:40;100681.44;;;15.60;nan
55685;BME280;41883;49.544;8.646;2023-05-28T01:20:06;100683.69;;;15.48;nan
55685;BME280;41883;49.544;8.646;2023-05-28T01:22:37;100680.19;;;15.33;nan
55685;BME280;41883;49.544;8.646;2023-05-28T01:25:06;100672.47;;;15.15;nan
55685;BME280;41883;49.544;8.646;2023-05-28T01:27:43;100676.69;;;15.10;nan
55685;BME280;41883;49.544;8.646;2023-05-28T01:30:09;100684.44;;;14.96;nan
55685;BME280;41883;49.544;8.646;2023-05-28T01:32:38;100687.03;;;14.81;nan
55685;BME280;41883;49.544;8.646;2023-05-28T01:35:05;100681.91;;;14.72;nan
55685;BME280;41883;49.544;8.646;2023-05-28T01:37:37;100688.66;;;14.59;nan
55685;BME280;41883;49.544;8.646;2023-05-28T01:40:07;100687.38;;;14.39;nan
55685;BME280;41883;49.544;8.646;2023-05-28T01:42:34;100684.69;;;14.39;nan
55685;BME280;41883;49.544;8.646;2023-05-28T01:45:00;100681.13;;;14.23;nan
55685;BME280;41883;49.544;8.646;2023-05-28T01:47:27;100679.94;;;14.26;nan
55685;BME280;41883;49.544;8.646;2023-05-28T01:49:53;100683.59;;;14.25;nan
55685;BME280;41883;49.544;8.646;2023-05-28T01:52:18;100680.41;;;14.30;nan
55685;BME280;41883;49.544;8.646;2023-05-28T01:54:44;100680.59;;;14.28;nan
55685;BME280;41883;49.544;8.646;2023-05-28T01:57:09;100683.25;;;14.28;nan
55685;BME280;41883;49.544;8.646;2023-05-28T01:59:35;100683.06;;;14.30;nan
55685;BME280;41883;49.544;8.646;2023-05-28T02:02:00;100682.75;;;14.33;nan
55685;BME280;41883;49.544;8.646;2023-05-28T02:04:26;100685.41;;;14.33;nan
55685;BME280;41883;49.544;8.646;2023-05-28T02:06:51;100687.06;;;14.34;nan
55685;BME280;41883;49.544;8.646;2023-05-28T02:09:17;100683.38;;;14.35;nan
55685;BME280;41883;49.544;8.646;2023-05-28T02:11:42;100687.22;;;14.32;nan
55685;BME280;41883;49.544;8.646;2023-05-28T02:14:07;100683.44;;;14.27;nan
55685;BME280;41883;49.544;8.646;2023-05-28T02:16:33;100687.41;;;14.22;nan
55685;BME280;41883;49.544;8.646;2023-05-28T02:19:00;100686.44;;;14.23;nan
55685;BME280;41883;49.544;8.646;2023-05-28T02:21:26;100680.75;;;14.27;nan
55685;BME280;41883;49.544;8.646;2023-05-28T02:23:51;100677.94;;;14.28;nan
55685;BME280;41883;49.544;8.646;2023-05-28T02:26:17;100680.09;;;14.24;nan
55685;BME280;41883;49.544;8.646;2023-05-28T02:28:46;100682.09;;;14.22;nan
55685;BME280;41883;49.544;8.646;2023-05-28T02:31:12;100683.47;;;14.18;nan
55685;BME280;41883;49.544;8.646;2023-05-28T02:33:41;100673.66;;;14.11;nan
55685;BME280;41883;49.544;8.646;2023-05-28T02:36:07;100678.16;;;14.10;nan
55685;BME280;41883;49.544;8.646;2023-05-28T02:38:33;100673.34;;;14.06;nan
55685;BME280;41883;49.544;8.646;2023-05-28T02:40:59;100670.88;;;13.96;nan
55685;BME280;41883;49.544;8.646;2023-05-28T02:43:24;100675.41;;;13.87;nan
55685;BME280;41883;49.544;8.646;2023-05-28T02:45:49;100678.22;;;13.77;nan
55685;BME280;41883;49.544;8.646;2023-05-28T02:48:15;100679.59;;;13.65;nan
55685;BME280;41883;49.544;8.646;2023-05-28T02:50:40;100678.28;;;13.53;nan
55685;BME280;41883;49.544;8.646;2023-05-28T02:53:05;100680.28;;;13.43;nan
55685;BME280;41883;49.544;8.646;2023-05-28T02:55:30;100682.09;;;13.34;nan
55685;BME280;41883;49.544;8.646;2023-05-28T02:57:56;100676.47;;;13.29;nan
55685;BME280;41883;49.544;8.646;2023-05-28T03:00:21;100676.44;;;13.21;nan
55685;BME280;41883;49.544;8.646;2023-05-28T03:02:46;100672.59;;;13.15;nan
55685;BME280;41883;49.544;8.646;2023-05-28T03:05:12;100680.72;;;13.05;nan
55685;BME280;41883;49.544;8.646;2023-05-28T03:07:37;100683.19;;;12.99;nan
55685;BME280;41883;49.544;8.646;2023-05-28T03:10:03;100689.81;;;12.86;nan
55685;BME280;41883;49.544;8.646;2023-05-28T03:12:29;100686.97;;;12.80;nan
55685;BME280;41883;49.544;8.646;2023-05-28T03:14:54;100691.44;;;12.79;nan
55685;BME280;41883;49.544;8.646;2023-05-28T03:17:19;100685.13;;;12.72;nan
55685;BME280;41883;49.544;8.646;2023-05-28T03:19:45;100687.63;;;12.73;nan
55685;BME280;41883;49.544;8.646;2023-05-28T03:22:10;100686.97;;;12.71;nan
55685;BME280;41883;49.544;8.646;2023-05-28T03:24:35;100692.75;;;12.67;nan
55685;BME280;41883;49.544;8.646;2023-05-28T03:27:01;100686.94;;;12.63;nan
55685;BME280;41883;49.544;8.646;2023-05-28T03:29:27;100695.06;;;12.62;nan
55685;BME280;41883;49.544;8.646;2023-05-28T03:31:52;100690.38;;;12.56;nan
55685;BME280;41883;49.544;8.646;2023-05-28T03:34:17;100689.22;;;12.50;nan
55685;BME280;41883;49.544;8.646;2023-05-28T03:36:42;100685.38;;;12.44;nan
55685;BME280;41883;49.544;8.646;2023-05-28T03:39:08;100686.50;;;12.42;nan
55685;BME280;41883;49.544;8.646;2023-05-28T03:41:35;100678.56;;;12.42;nan
55685;BME280;41883;49.544;8.646;2023-05-28T03:44:00;100682.88;;;12.43;nan
55685;BME280;41883;49.544;8.646;2023-05-28T03:46:25;100683.78;;;12.60;nan
55685;BME280;41883;49.544;8.646;2023-05-28T03:48:51;100681.50;;;12.73;nan
55685;BME280;41883;49.544;8.646;2023-05-28T03:51:16;100682.47;;;12.64;nan
55685;BME280;41883;49.544;8.646;2023-05-28T03:53:41;100683.78;;;12.60;nan
55685;BME280;41883;49.544;8.646;2023-05-28T03:56:07;100688.31;;;12.75;nan
55685;BME280;41883;49.544;8.646;2023-05-28T03:58:32;100692.84;;;13.00;nan
55685;BME280;41883;49.544;8.646;2023-05-28T04:00:57;100684.53;;;13.03;nan
55685;BME280;41883;49.544;8.646;2023-05-28T04:03:23;100686.84;;;13.06;nan
55685;BME280;41883;49.544;8.646;2023-05-28T04:05:48;100693.84;;;13.07;nan
55685;BME280;41883;49.544;8.646;2023-05-28T04:08:13;100687.03;;;13.12;nan
55685;BME280;41883;49.544;8.646;2023-05-28T04:10:39;100685.72;;;13.16;nan
55685;BME280;41883;49.544;8.646;2023-05-28T04:13:04;100685.56;;;13.18;nan
55685;BME280;41883;49.544;8.646;2023-05-28T04:15:29;100683.78;;;13.35;nan
55685;BME280;41883;49.544;8.646;2023-05-28T04:17:54;100688.41;;;13.57;nan
55685;BME280;41883;49.544;8.646;2023-05-28T04:20:20;100682.09;;;13.50;nan
55685;BME280;41883;49.544;8.646;2023-05-28T04:22:46;100683.06;;;13.74;nan
55685;BME280;41883;49.544;8.646;2023-05-28T04:25:12;100682.84;;;14.00;nan
55685;BME280;41883;49.544;8.646;2023-05-28T04:27:37;100687.22;;;14.32;nan
55685;BME280;41883;49.544;8.646;2023-05-28T04:30:03;100683.94;;;14.22;nan
55685;BME280;41883;49.544;8.646;2023-05-28T04:32:28;100688.75;;;14.27;nan
55685;BME280;41883;49.544;8.646;2023-05-28T04:34:56;100692.88;;;14.37;nan
55685;BME280;41883;49.544;8.646;2023-05-28T04:37:21;100691.50;;;14.41;nan
55685;BME280;41883;49.544;8.646;2023-05-28T04:39:47;100684.28;;;14.67;nan
55685;BME280;41883;49.544;8.646;2023-05-28T04:42:12;100689.09;;;14.71;nan
55685;BME280;41883;49.544;8.646;2023-05-28T04:44:43;100691.09;;;14.69;nan
55685;BME280;41883;49.544;8.646;2023-05-28T04:47:08;100687.47;;;14.62;nan
55685;BME280;41883;49.544;8.646;2023-05-28T04:49:34;100679.63;;;14.69;nan
55685;BME280;41883;49.544;8.646;2023-05-28T04:51:59;100693.59;;;14.62;nan
55685;BME280;41883;49.544;8.646;2023-05-28T04:54:24;100693.25;;;14.65;nan
55685;BME280;41883;49.544;8.646;2023-05-28T04:56:51;100693.16;;;14.59;nan
55685;BME280;41883;49.544;8.646;2023-05-28T04:59:16;100702.09;;;14.66;nan
55685;BME280;41883;49.544;8.646;2023-05-28T05:01:42;100703.06;;;14.73;nan
55685;BME280;41883;49.544;8.646;2023-05-28T05:04:07;100696.66;;;14.82;nan
55685;BME280;41883;49.544;8.646;2023-05-28T05:06:33;100704.63;;;14.82;nan
55685;BME280;41883;49.544;8.646;2023-05-28T05:08:59;100699.50;;;14.81;nan
55685;BME280;41883;49.544;8.646;2023-05-28T05:11:25;100701.06;;;14.98;nan
55685;BME280;41883;49.544;8.646;2023-05-28T05:13:51;100699.84;;;15.09;nan
55685;BME280;41883;49.544;8.646;2023-05-28T05:16:16;100691.13;;;15.15;nan
55685;BME280;41883;49.544;8.646;2023-05-28T05:18:41;100692.72;;;15.24;nan
55685;BME280;41883;49.544;8.646;2023-05-28T05:21:07;100695.56;;;15.23;nan
55685;BME280;41883;49.544;8.646;2023-05-28T05:23:35;100699.00;;;15.32;nan
55685;BME280;41883;49.544;8.646;2023-05-28T05:26:00;100695.97;;;15.35;nan
55685;BME280;41883;49.544;8.646;2023-05-28T05:28:25;100693.53;;;15.48;nan
55685;BME280;41883;49.544;8.646;2023-05-28T05:30:51;100705.53;;;15.67;nan
55685;BME280;41883;49.544;8.646;2023-05-28T05:33:16;100705.31;;;15.77;nan
55685;BME280;41883;49.544;8.646;2023-05-28T05:35:41;100708.25;;;15.82;nan
55685;BME280;41883;49.544;8.646;2023-05-28T05:38:06;100714.44;;;15.97;nan
55685;BME280;41883;49.544;8.646;2023-05-28T05:40:32;100715.72;;;16.01;nan
55685;BME280;41883;49.544;8.646;2023-05-28T05:42:57;100708.28;;;16.26;nan
55685;BME280;41883;49.544;8.646;2023-05-28T05:45:22;100712.13;;;16.53;nan
55685;BME280;41883;49.544;8.646;2023-05-28T05:47:47;100714.78;;;16.83;nan
55685;BME280;41883;49.544;8.646;2023-05-28T05:50:12;100715.78;;;17.18;nan
55685;BME280;41883;49.544;8.646;2023-05-28T05:52:38;100716.91;;;17.52;nan
55685;BME280;41883;49.544;8.646;2023-05-28T05:55:04;100723.59;;;17.91;nan
55685;BME280;41883;49.544;8.646;2023-05-28T05:57:30;100717.75;;;18.09;nan
55685;BME280;41883;49.544;8.646;2023-05-28T05:59:57;100723.31;;;18.49;nan
55685;BME280;41883;49.544;8.646;2023-05-28T06:02:22;100718.75;;;18.84;nan
55685;BME280;41883;49.544;8.646;2023-05-28T06:04:47;100713.03;;;19.07;nan
55685;BME280;41883;49.544;8.646;2023-05-28T06:07:13;100717.41;;;19.42;nan
55685;BME280;41883;49.544;8.646;2023-05-28T06:09:38;100709.38;;;19.68;nan
55685;BME280;41883;49.544;8.646;2023-05-28T06:12:04;100715.31;;;20.24;nan
55685;BME280;41883;49.544;8.646;2023-05-28T06:14:29;100710.91;;;20.43;nan
55685;BME280;41883;49.544;8.646;2023-05-28T06:16:55;100713.59;;;20.88;nan
55685;BME280;41883;49.544;8.646;2023-05-28T06:19:20;100709.25;;;21.25;nan
55685;BME280;41883;49.544;8.646;2023-05-28T06:21:46;100711.34;;;21.23;nan
55685;BME280;41883;49.544;8.646;2023-05-28T06:24:11;100717.19;;;21.45;nan
55685;BME280;41883;49.544;8.646;2023-05-28T06:26:37;100716.50;;;21.56;nan
55685;BME280;41883;49.544;8.646;2023-05-28T06:29:02;100714.78;;;21.87;nan
55685;BME280;41883;49.544;8.646;2023-05-28T06:31:27;100726.88;;;22.40;nan
55685;BME280;41883;49.544;8.646;2023-05-28T06:33:53;100726.34;;;22.68;nan
55685;BME280;41883;49.544;8.646;2023-05-28T06:36:18;100722.53;;;23.06;nan
55685;BME280;41883;49.544;8.646;2023-05-28T06:38:44;100721.59;;;23.54;nan
55685;BME280;41883;49.544;8.646;2023-05-28T06:41:09;100723.06;;;23.92;nan
55685;BME280;41883;49.544;8.646;2023-05-28T06:43:36;100726.09;;;24.07;nan
55685;BME280;41883;49.544;8.646;2023-05-28T06:46:01;100717.75;;;24.21;nan
55685;BME280;41883;49.544;8.646;2023-05-28T06:48:26;100716.13;;;24.08;nan
55685;BME280;41883;49.544;8.646;2023-05-28T06:50:52;100719.88;;;23.83;nan
55685;BME280;41883;49.544;8.646;2023-05-28T06:53:18;100715.50;;;23.59;nan
55685;BME280;41883;49.544;8.646;2023-05-28T06:55:43;100722.50;;;23.24;nan
55685;BME280;41883;49.544;8.646;2023-05-28T06:58:08;100730.84;;;23.35;nan
55685;BME280;41883;49.544;8.646;2023-05-28T07:00:33;100718.50;;;22.97;nan
55685;BME280;41883;49.544;8.646;2023-05-28T07:02:59;100724.91;;;23.14;nan
55685;BME280;41883;49.544;8.646;2023-05-28T07:05:24;100728.84;;;23.42;nan
55685;BME280;41883;49.544;8.646;2023-05-28T07:07:50;100729.03;;;23.94;nan
55685;BME280;41883;49.544;8.646;2023-05-28T07:10:15;100727.88;;;23.90;nan
55685;BME280;41883;49.544;8.646;2023-05-28T07:12:41;100727.75;;;23.97;nan
55685;BME280;41883;49.544;8.646;2023-05-28T07:15:07;100730.63;;;23.48;nan
55685;BME280;41883;49.544;8.646;2023-05-28T07:17:32;100726.34;;;23.82;nan
55685;BME280;41883;49.544;8.646;2023-05-28T07:19:57;100725.00;;;24.44;nan
55685;BME280;41883;49.544;8.646;2023-05-28T07:22:23;100725.78;;;24.96;nan
55685;BME280;41883;49.544;8.646;2023-05-28T07:24:49;100735.28;;;25.28;nan
55685;BME280;41883;49.544;8.646;2023-05-28T07:27:15;100734.56;;;25.49;nan
55685;BME280;41883;49.544;8.646;2023-05-28T07:29:40;100734.56;;;25.66;nan
55685;BME280;41883;49.544;8.646;2023-05-28T07:32:05;100729.38;;;25.81;nan
55685;BME280;41883;49.544;8.646;2023-05-28T07:34:31;100736.00;;;26.08;nan
55685;BME280;41883;49.544;8.646;2023-05-28T07:36:56;100736.22;;;26.23;nan
55685;BME280;41883;49.544;8.646;2023-05-28T07:39:22;100737.09;;;26.67;nan
55685;BME280;41883;49.544;8.646;2023-05-28T07:41:47;100735.47;;;26.94;nan
55685;BME280;41883;49.544;8.646;2023-05-28T07:44:13;100737.94;;;27.22;nan
55685;BME280;41883;49.544;8.646;2023-05-28T07:46:40;100735.63;;;27.73;nan
55685;BME280;41883;49.544;8.646;2023-05-28T07:49:05;100734.16;;;27.93;nan
55685;BME280;41883;49.544;8.646;2023-05-28T07:51:31;100727.63;;;28.42;nan
55685;BME280;41883;49.544;8.646;2023-05-28T07:53:57;100724.81;;;28.26;nan
55685;BME280;41883;49.544;8.646;2023-05-28T07:56:23;100720.75;;;28.34;nan
55685;BME280;41883;49.544;8.646;2023-05-28T07:58:48;100728.34;;;28.95;nan
55685;BME280;41883;49.544;8.646;2023-05-28T08:01:13;100728.66;;;29.09;nan
55685;BME280;41883;49.544;8.646;2023-05-28T08:03:39;100728.69;;;29.50;nan
55685;BME280;41883;49.544;8.646;2023-05-28T08:06:04;100730.03;;;29.52;nan
55685;BME280;41883;49.544;8.646;2023-05-28T08:08:29;100727.03;;;29.59;nan
55685;BME280;41883;49.544;8.646;2023-05-28T08:10:55;100721.59;;;29.49;nan
55685;BME280;41883;49.544;8.646;2023-05-28T08:13:20;100730.31;;;29.20;nan
55685;BME280;41883;49.544;8.646;2023-05-28T08:15:45;100723.41;;;28.76;nan
55685;BME280;41883;49.544;8.646;2023-05-28T08:18:11;100714.50;;;29.17;nan
55685;BME280;41883;49.544;8.646;2023-05-28T08:20:36;100719.16;;;29.47;nan
55685;BME280;41883;49.544;8.646;2023-05-28T08:23:01;100712.59;;;29.63;nan
55685;BME280;41883;49.544;8.646;2023-05-28T08:25:27;100716.16;;;29.18;nan
55685;BME280;41883;49.544;8.646;2023-05-28T08:27:52;100712.06;;;29.51;nan
55685;BME280;41883;49.544;8.646;2023-05-28T08:30:18;100715.03;;;29.85;nan
55685;BME280;41883;49.544;8.646;2023-05-28T08:32:43;100701.97;;;29.62;nan
55685;BME280;41883;49.544;8.646;2023-05-28T08:35:08;100700.88;;;29.73;nan
55685;BME280;41883;49.544;8.646;2023-05-28T08:37:33;100695.69;;;29.61;nan
55685;BME280;41883;49.544;8.646;2023-05-28T08:39:58;100697.34;;;29.47;nan
55685;BME280;41883;49.544;8.646;2023-05-28T08:42:24;100695.44;;;29.42;nan
55685;BME280;41883;49.544;8.646;2023-05-28T08:44:52;100699.66;;;30.20;nan
55685;BME280;41883;49.544;8.646;2023-05-28T08:47:17;100699.66;;;30.25;nan
55685;BME280;41883;49.544;8.646;2023-05-28T08:49:47;100687.81;;;29.70;nan
55685;BME280;41883;49.544;8.646;2023-05-28T08:52:15;100682.22;;;30.16;nan
55685;BME280;41883;49.544;8.646;2023-05-28T08:54:42;100693.19;;;30.06;nan
55685;BME280;41883;49.544;8.646;2023-05-28T08:57:07;100681.00;;;29.73;nan
55685;BME280;41883;49.544;8.646;2023-05-28T08:59:34;100685.38;;;29.12;nan
55685;BME280;41883;49.544;8.646;2023-05-28T09:01:59;100675.78;;;29.81;nan
55685;BME280;41883;49.544;8.646;2023-05-28T09:04:24;100673.06;;;29.76;nan
55685;BME280;41883;49.544;8.646;2023-05-28T09:06:50;100670.41;;;30.86;nan
55685;BME280;41883;49.544;8.646;2023-05-28T09:09:19;100667.94;;;31.24;nan
55685;BME280;41883;49.544;8.646;2023-05-28T09:11:44;100665.91;;;31.40;nan
55685;BME280;41883;49.544;8.646;2023-05-28T09:14:11;100673.78;;;30.67;nan
55685;BME280;41883;49.544;8.646;2023-05-28T09:16:39;100668.66;;;30.56;nan
55685;BME280;41883;49.544;8.646;2023-05-28T09:19:04;100653.31;;;31.09;nan
55685;BME280;41883;49.544;8.646;2023-05-28T09:21:30;100655.25;;;30.64;nan
55685;BME280;41883;49.544;8.646;2023-05-28T09:23:55;100655.59;;;30.97;nan
55685;BME280;41883;49.544;8.646;2023-05-28T09:26:20;100654.16;;;30.65;nan
55685;BME280;41883;49.544;8.646;2023-05-28T09:28:46;100651.22;;;31.01;nan
55685;BME280;41883;49.544;8.646;2023-05-28T09:31:11;100653.03;;;31.93;nan
55685;BME280;41883;49.544;8.646;2023-05-28T09:33:45;100642.97;;;32.13;nan
55685;BME280;41883;49.544;8.646;2023-05-28T09:36:11;100640.63;;;32.63;nan
55685;BME280;41883;49.544;8.646;2023-05-28T09:38:39;100641.56;;;33.10;nan
55685;BME280;41883;49.544;8.646;2023-05-28T09:41:05;100634.28;;;32.06;nan
55685;BME280;41883;49.544;8.646;2023-05-28T09:43:30;100630.03;;;32.19;nan
55685;BME280;41883;49.544;8.646;2023-05-28T09:46:08;100630.13;;;32.32;nan
55685;BME280;41883;49.544;8.646;2023-05-28T09:48:33;100625.38;;;32.95;nan
55685;BME280;41883;49.544;8.646;2023-05-28T09:50:59;100626.63;;;32.84;nan
55685;BME280;41883;49.544;8.646;2023-05-28T09:53:24;100627.22;;;32.99;nan
55685;BME280;41883;49.544;8.646;2023-05-28T09:55:50;100621.78;;;32.81;nan
55685;BME280;41883;49.544;8.646;2023-05-28T09:58:16;100619.16;;;33.22;nan
55685;BME280;41883;49.544;8.646;2023-05-28T10:00:43;100619.56;;;33.29;nan
55685;BME280;41883;49.544;8.646;2023-05-28T10:05:43;100613.63;;;32.37;nan
55685;BME280;41883;49.544;8.646;2023-05-28T10:08:11;100619.25;;;32.65;nan
55685;BME280;41883;49.544;8.646;2023-05-28T10:10:36;100612.50;;;32.76;nan
55685;BME280;41883;49.544;8.646;2023-05-28T10:13:04;100612.75;;;33.13;nan
55685;BME280;41883;49.544;8.646;2023-05-28T10:15:30;100614.28;;;32.29;nan
55685;BME280;41883;49.544;8.646;2023-05-28T10:17:55;100614.63;;;32.66;nan
55685;BME280;41883;49.544;8.646;2023-05-28T10:20:20;100616.50;;;32.27;nan
55685;BME280;41883;49.544;8.646;2023-05-28T10:22:46;100624.13;;;31.63;nan
55685;BME280;41883;49.544;8.646;2023-05-28T10:25:12;100603.25;;;31.91;nan
55685;BME280;41883;49.544;8.646;2023-05-28T10:27:43;100611.31;;;32.07;nan
55685;BME280;41883;49.544;8.646;2023-05-28T10:30:09;100618.00;;;32.57;nan
55685;BME280;41883;49.544;8.646;2023-05-28T10:32:38;100613.94;;;32.74;nan
55685;BME280;41883;49.544;8.646;2023-05-28T10:35:06;100610.84;;;33.27;nan
55685;BME280;41883;49.544;8.646;2023-05-28T10:37:31;100604.81;;;33.58;nan
55685;BME280;41883;49.544;8.646;2023-05-28T10:40:00;100605.63;;;33.72;nan
55685;BME280;41883;49.544;8.646;2023-05-28T10:42:25;100604.19;;;34.16;nan
55685;BME280;41883;49.544;8.646;2023-05-28T10:47:38;100608.88;;;34.38;nan
55685;BME280;41883;49.544;8.646;2023-05-28T10:50:11;100591.31;;;34.84;nan
55685;BME280;41883;49.544;8.646;2023-05-28T10:52:37;100598.66;;;34.53;nan
55685;BME280;41883;49.544;8.646;2023-05-28T10:55:04;100586.22;;;35.23;nan
55685;BME280;41883;49.544;8.646;2023-05-28T10:57:47;100589.84;;;35.09;nan
55685;BME280;41883;49.544;8.646;2023-05-28T11:00:22;100586.75;;;35.34;nan
55685;BME280;41883;49.544;8.646;2023-05-28T11:02:51;100584.31;;;35.01;nan
55685;BME280;41883;49.544;8.646;2023-05-28T11:05:16;100578.59;;;34.88;nan
55685;BME280;41883;49.544;8.646;2023-05-28T11:07:42;100578.88;;;35.41;nan
55685;BME280;41883;49.544;8.646;2023-05-28T11:10:12;100584.03;;;35.73;nan
55685;BME280;41883;49.544;8.646;2023-05-28T11:12:41;100579.75;;;36.33;nan
55685;BME280;41883;49.544;8.646;2023-05-28T11:15:08;100570.50;;;36.21;nan
55685;BME280;41883;49.544;8.646;2023-05-28T11:17:37;100576.53;;;35.65;nan
55685;BME280;41883;49.544;8.646;2023-05-28T11:20:03;100572.13;;;36.39;nan
55685;BME280;41883;49.544;8.646;2023-05-28T11:22:34;100571.81;;;36.23;nan
55685;BME280;41883;49.544;8.646;2023-05-28T11:25:07;100566.75;;;36.77;nan
55685;BME280;41883;49.544;8.646;2023-05-28T11:27:34;100568.22;;;36.23;nan
55685;BME280;41883;49.544;8.646;2023-05-28T11:30:08;100566.78;;;36.17;nan
55685;BME280;41883;49.544;8.646;2023-05-28T11:32:34;100562.88;;;36.18;nan
55685;BME280;41883;49.544;8.646;2023-05-28T11:35:00;100566.44;;;36.53;nan
55685;BME280;41883;49.544;8.646;2023-05-28T11:37:28;100557.50;;;37.29;nan
55685;BME280;41883;49.544;8.646;2023-05-28T11:39:55;100556.00;;;37.70;nan
55685;BME280;41883;49.544;8.646;2023-05-28T11:42:22;100562.97;;;37.76;nan
55685;BME280;41883;49.544;8.646;2023-05-28T11:44:49;100560.44;;;38.13;nan
55685;BME280;41883;49.544;8.646;2023-05-28T11:47:15;100555.81;;;38.05;nan
55685;BME280;41883;49.544;8.646;2023-05-28T11:49:41;100555.25;;;37.91;nan
55685;BME280;41883;49.544;8.646;2023-05-28T11:52:14;100549.91;;;37.65;nan
55685;BME280;41883;49.544;8.646;2023-05-28T11:54:41;100553.34;;;37.82;nan
55685;BME280;41883;49.544;8.646;2023-05-28T11:57:08;100546.84;;;37.57;nan
55685;BME280;41883;49.544;8.646;2023-05-28T11:59:33;100543.13;;;37.53;nan
55685;BME280;41883;49.544;8.646;2023-05-28T12:02:13;100541.34;;;37.49;nan
55685;BME280;41883;49.544;8.646;2023-05-28T12:04:39;100545.00;;;37.32;nan
55685;BME280;41883;49.544;8.646;2023-05-28T12:07:05;100545.72;;;36.29;nan
55685;BME280;41883;49.544;8.646;2023-05-28T12:09:30;100541.03;;;36.21;nan
55685;BME280;41883;49.544;8.646;2023-05-28T12:12:03;100534.03;;;35.98;nan
55685;BME280;41883;49.544;8.646;2023-05-28T12:14:31;100542.13;;;35.37;nan
55685;BME280;41883;49.544;8.646;2023-05-28T12:17:08;100547.56;;;35.19;nan
55685;BME280;41883;49.544;8.646;2023-05-28T12:19:34;100540.09;;;35.11;nan
55685;BME280;41883;49.544;8.646;2023-05-28T12:22:00;100531.09;;;34.43;nan
55685;BME280;41883;49.544;8.646;2023-05-28T12:24:27;100541.94;;;33.75;nan
55685;BME280;41883;49.544;8.646;2023-05-28T12:26:53;100537.06;;;33.31;nan
55685;BME280;41883;49.544;8.646;2023-05-28T12:29:18;100534.50;;;33.48;nan
55685;BME280;41883;49.544;8.646;2023-05-28T12:31:43;100528.25;;;33.01;nan
55685;BME280;41883;49.544;8.646;2023-05-28T12:34:09;100531.25;;;32.72;nan
55685;BME280;41883;49.544;8.646;2023-05-28T12:36:34;100526.44;;;32.12;nan
55685;BME280;41883;49.544;8.646;2023-05-28T12:39:00;100523.09;;;31.96;nan
55685;BME280;41883;49.544;8.646;2023-05-28T12:41:25;100522.47;;;31.61;nan
55685;BME280;41883;49.544;8.646;2023-05-28T12:43:50;100521.91;;;31.40;nan
55685;BME280;41883;49.544;8.646;2023-05-28T12:46:16;100521.22;;;30.66;nan
55685;BME280;41883;49.544;8.646;2023-05-28T12:48:41;100521.38;;;30.85;nan
55685;BME280;41883;49.544;8.646;2023-05-28T12:51:06;100519.28;;;30.37;nan
55685;BME280;41883;49.544;8.646;2023-05-28T12:53:32;100515.28;;;30.19;nan
55685;BME280;41883;49.544;8.646;2023-05-28T12:55:58;100510.66;;;29.60;nan
55685;BME280;41883;49.544;8.646;2023-05-28T12:58:23;100511.94;;;29.83;nan
55685;BME280;41883;49.544;8.646;2023-05-28T13:00:49;100512.75;;;29.83;nan
55685;BME280;41883;49.544;8.646;2023-05-28T13:03:14;100505.50;;;29.58;nan
55685;BME280;41883;49.544;8.646;2023-05-28T13:05:39;100499.00;;;29.49;nan
55685;BME280;41883;49.544;8.646;2023-05-28T13:08:04;100507.81;;;29.20;nan
55685;BME280;41883;49.544;8.646;2023-05-28T13:10:30;100508.06;;;29.24;nan